Time;durP1;ratioP1;P1;durP2;ratioP2;P2;SDS_P1;SDS_P2;PMS_P1;PMS_P2;Temp;Humidity;BMP_temperature;BMP_pressure;BME280_temperature;BME280_humidity;BME280_pressure;Samples;Min_cycle;Max_cycle;Signal;HPM_P1;HPM_P2
2023/03/06 00:01:00;;;;;;;29.80;14.47;;;6.00;99.90;;;;;;5037808;28;20194;-65
2023/03/06 00:03:26;;;;;;;33.60;15.40;;;6.00;99.90;;;;;;5044567;28;20186;-65
2023/03/06 00:05:55;;;;;;;28.83;14.87;;;6.00;99.90;;;;;;5061497;28;20185;-66
2023/03/06 00:08:22;;;;;;;28.73;16.20;;;5.80;99.90;;;;;;5046938;28;20194;-65
2023/03/06 00:10:47;;;;;;;28.70;14.80;;;5.70;99.90;;;;;;5053308;28;20216;-64
2023/03/06 00:13:17;;;;;;;36.40;16.57;;;5.70;99.90;;;;;;5044348;28;20625;-65
2023/03/06 00:15:43;;;;;;;34.53;16.30;;;5.70;99.90;;;;;;5048497;28;20194;-65
2023/03/06 00:18:09;;;;;;;32.23;16.13;;;5.70;99.90;;;;;;5044970;28;20517;-65
2023/03/06 00:20:37;;;;;;;30.57;15.87;;;5.80;99.90;;;;;;5036654;28;20190;-65
2023/03/06 00:23:03;;;;;;;30.07;16.03;;;5.80;99.90;;;;;;5039893;28;20182;-64
2023/03/06 00:25:29;;;;;;;25.80;15.03;;;5.80;99.90;;;;;;5063492;28;20557;-65
2023/03/06 00:27:54;;;;;;;29.87;14.93;;;5.90;99.90;;;;;;5047629;28;20661;-65
2023/03/06 00:30:22;;;;;;;29.47;16.20;;;5.90;99.90;;;;;;5044513;28;20667;-67
2023/03/06 00:32:48;;;;;;;30.03;15.97;;;5.80;99.90;;;;;;5049587;28;20192;-64
2023/03/06 00:35:15;;;;;;;29.97;15.57;;;5.60;99.90;;;;;;5038218;28;20194;-64
2023/03/06 00:37:41;;;;;;;32.40;16.40;;;5.80;99.90;;;;;;5052044;28;20214;-65
2023/03/06 00:40:11;;;;;;;28.20;15.57;;;5.80;99.90;;;;;;5052279;28;20255;-64
2023/03/06 00:42:37;;;;;;;33.73;15.03;;;5.80;99.90;;;;;;5042281;28;20194;-66
2023/03/06 00:45:03;;;;;;;33.37;16.03;;;5.80;99.90;;;;;;5054874;28;20190;-64
2023/03/06 00:47:29;;;;;;;30.67;15.17;;;5.70;99.90;;;;;;5035591;28;20186;-65
2023/03/06 00:49:54;;;;;;;35.30;16.63;;;5.80;99.90;;;;;;5046151;28;20269;-64
2023/03/06 00:52:20;;;;;;;25.47;14.77;;;5.80;99.90;;;;;;5053941;28;20174;-67
2023/03/06 00:54:45;;;;;;;29.87;15.80;;;5.70;99.90;;;;;;5061370;28;20689;-65
2023/03/06 00:57:11;;;;;;;29.70;16.03;;;5.70;99.90;;;;;;5035996;28;20234;-66
2023/03/06 00:59:37;;;;;;;30.23;16.20;;;5.70;99.90;;;;;;5051596;28;20668;-65
2023/03/06 01:02:03;;;;;;;27.93;15.30;;;5.60;99.90;;;;;;5053679;28;20178;-65
2023/03/06 01:04:29;;;;;;;32.37;16.13;;;5.70;99.90;;;;;;5067333;28;20182;-65
2023/03/06 01:06:55;;;;;;;31.07;16.27;;;5.60;99.90;;;;;;5058199;28;20190;-64
2023/03/06 01:09:20;;;;;;;32.07;15.33;;;5.50;99.90;;;;;;5059291;28;20260;-64
2023/03/06 01:11:46;;;;;;;28.40;14.77;;;5.50;99.90;;;;;;5062845;28;20211;-65
2023/03/06 01:14:12;;;;;;;31.50;15.63;;;5.50;99.90;;;;;;5072762;28;20640;-65
2023/03/06 01:16:38;;;;;;;33.63;15.80;;;5.40;99.90;;;;;;5045026;28;20194;-65
2023/03/06 01:19:03;;;;;;;30.07;15.40;;;5.40;99.90;;;;;;5094975;28;20304;-64
2023/03/06 01:21:29;;;;;;;35.93;16.37;;;5.40;99.90;;;;;;5055453;28;20188;-65
2023/03/06 01:23:55;;;;;;;31.80;15.33;;;5.30;99.90;;;;;;5046988;28;20629;-64
2023/03/06 01:26:20;;;;;;;27.70;15.10;;;5.30;99.90;;;;;;5053103;28;20239;-67
2023/03/06 01:28:46;;;;;;;31.67;14.77;;;5.30;99.90;;;;;;5060769;28;20189;-64
2023/03/06 01:31:12;;;;;;;28.53;14.10;;;5.20;99.90;;;;;;5041445;28;20197;-64
2023/03/06 01:33:38;;;;;;;35.77;15.77;;;5.30;99.90;;;;;;5039362;28;20317;-65
2023/03/06 01:36:10;;;;;;;29.10;13.13;;;5.20;99.90;;;;;;5061171;28;20192;-65
2023/03/06 01:38:36;;;;;;;26.37;14.20;;;5.20;99.90;;;;;;5058042;28;20202;-64
2023/03/06 01:41:02;;;;;;;25.70;14.07;;;5.20;99.90;;;;;;5035396;28;20563;-65
2023/03/06 01:43:33;;;;;;;25.70;14.77;;;5.20;99.90;;;;;;5033674;28;20759;-65
2023/03/06 01:46:08;;;;;;;28.70;14.53;;;5.20;99.90;;;;;;5044827;28;20191;-65
2023/03/06 01:48:34;;;;;;;34.47;15.30;;;5.30;99.90;;;;;;5052187;28;20197;-66
2023/03/06 01:50:59;;;;;;;36.13;15.13;;;5.30;99.90;;;;;;5055721;28;20245;-66
2023/03/06 01:53:25;;;;;;;28.23;15.97;;;5.30;99.90;;;;;;5052451;28;20197;-64
2023/03/06 01:55:51;;;;;;;29.60;15.00;;;5.40;99.90;;;;;;5063899;28;20270;-65
2023/03/06 01:58:18;;;;;;;30.07;15.57;;;5.50;99.90;;;;;;5041984;28;20225;-65
2023/03/06 02:00:44;;;;;;;27.33;15.33;;;5.40;99.90;;;;;;5042907;28;20190;-65
2023/03/06 02:03:23;;;;;;;36.13;14.30;;;5.30;99.90;;;;;;5061512;28;20185;-65
2023/03/06 02:05:49;;;;;;;27.10;14.43;;;5.30;99.90;;;;;;5043240;28;20186;-64
2023/03/06 02:08:19;;;;;;;36.07;16.13;;;5.30;99.90;;;;;;5060616;28;20248;-65
2023/03/06 02:11:14;;;;;;;28.43;14.30;;;5.30;99.90;;;;;;5060411;28;20187;-65
2023/03/06 02:13:41;;;;;;;28.33;15.53;;;5.40;99.90;;;;;;5062337;28;20196;-65
2023/03/06 02:16:09;;;;;;;35.30;14.27;;;5.40;99.90;;;;;;5055509;28;20179;-64
2023/03/06 02:18:35;;;;;;;33.30;15.53;;;5.40;99.90;;;;;;5034053;28;20312;-65
2023/03/06 02:21:19;;;;;;;28.33;14.27;;;5.50;99.90;;;;;;5062751;28;20238;-65
2023/03/06 02:24:15;;;;;;;29.27;14.70;;;5.50;99.90;;;;;;5063029;28;20299;-64
2023/03/06 02:26:44;;;;;;;28.00;15.10;;;5.40;99.90;;;;;;5043056;28;20194;-64
2023/03/06 02:29:10;;;;;;;28.23;13.70;;;5.40;99.90;;;;;;5057851;28;20186;-65
2023/03/06 02:31:36;;;;;;;33.37;15.93;;;5.50;99.90;;;;;;5053832;28;20190;-65
2023/03/06 02:34:15;;;;;;;29.13;15.10;;;5.50;99.90;;;;;;5046482;28;20198;-65
2023/03/06 02:36:50;;;;;;;32.27;15.50;;;5.60;99.90;;;;;;5052399;28;20201;-64
2023/03/06 02:39:21;;;;;;;34.30;15.50;;;5.50;99.90;;;;;;5039065;28;20206;-65
2023/03/06 02:41:46;;;;;;;38.30;17.27;;;5.40;99.90;;;;;;5050272;28;20184;-64
2023/03/06 02:44:12;;;;;;;29.40;14.73;;;5.50;99.90;;;;;;5065454;28;20186;-65
2023/03/06 02:46:38;;;;;;;33.43;14.97;;;5.60;99.90;;;;;;5036538;28;20198;-65
2023/03/06 02:49:03;;;;;;;32.20;15.40;;;5.50;99.90;;;;;;5047410;28;20205;-63
2023/03/06 02:51:29;;;;;;;31.27;13.70;;;5.50;99.90;;;;;;5066607;28;20264;-64
2023/03/06 02:53:55;;;;;;;32.07;15.73;;;5.60;99.90;;;;;;5085789;28;20217;-63
2023/03/06 02:56:21;;;;;;;32.33;15.60;;;5.60;99.90;;;;;;5068749;28;20233;-64
2023/03/06 02:58:47;;;;;;;36.23;14.23;;;5.60;99.90;;;;;;5056740;28;20210;-64
2023/03/06 03:01:13;;;;;;;34.13;16.03;;;5.60;99.90;;;;;;5046643;28;20192;-64
2023/03/06 03:03:38;;;;;;;29.70;16.43;;;5.60;99.90;;;;;;5049067;28;20237;-64
2023/03/06 03:06:05;;;;;;;33.37;14.90;;;5.50;99.90;;;;;;5042294;28;20208;-65
2023/03/06 03:08:32;;;;;;;32.57;15.10;;;5.50;99.90;;;;;;5064576;28;20200;-64
2023/03/06 03:10:57;;;;;;;29.90;15.90;;;5.40;99.90;;;;;;5052124;28;20197;-64
2023/03/06 03:13:23;;;;;;;31.83;15.53;;;5.60;99.90;;;;;;5064944;28;20191;-64
2023/03/06 03:15:59;;;;;;;32.27;15.93;;;5.30;99.90;;;;;;5034394;28;20194;-64
2023/03/06 03:18:26;;;;;;;31.17;14.47;;;5.30;99.90;;;;;;5037012;28;20299;-64
2023/03/06 03:20:51;;;;;;;29.90;14.30;;;5.20;99.90;;;;;;5045804;28;20263;-65
2023/03/06 03:23:17;;;;;;;33.70;16.80;;;5.30;99.90;;;;;;5044183;28;20832;-65
2023/03/06 03:25:42;;;;;;;30.13;16.00;;;5.30;99.90;;;;;;5070148;28;20195;-65
2023/03/06 03:28:08;;;;;;;36.67;16.43;;;5.20;99.90;;;;;;5054392;28;20194;-65
2023/03/06 03:30:34;;;;;;;33.13;15.60;;;5.30;99.90;;;;;;5032313;28;20248;-65
2023/03/06 03:33:00;;;;;;;32.40;15.87;;;5.40;99.90;;;;;;5040650;28;20198;-65
2023/03/06 03:35:25;;;;;;;30.63;14.20;;;5.30;99.90;;;;;;5059434;28;20182;-64
2023/03/06 03:37:53;;;;;;;34.40;16.53;;;5.20;99.90;;;;;;5045921;28;20214;-64
2023/03/06 03:40:19;;;;;;;37.93;17.63;;;5.30;99.90;;;;;;5043854;28;20217;-64
2023/03/06 03:42:44;;;;;;;35.90;16.80;;;5.40;99.90;;;;;;5049773;28;20728;-65
2023/03/06 03:45:11;;;;;;;33.20;16.50;;;5.20;99.90;;;;;;5036445;28;20226;-64
2023/03/06 03:47:36;;;;;;;30.47;15.63;;;5.10;99.90;;;;;;5041192;28;20194;-64
2023/03/06 03:50:02;;;;;;;36.07;18.00;;;5.10;99.90;;;;;;5054217;28;20194;-64
2023/03/06 03:52:27;;;;;;;41.60;16.77;;;5.10;99.90;;;;;;5019729;28;20194;-64
2023/03/06 03:54:53;;;;;;;28.67;14.67;;;5.20;99.90;;;;;;5037576;28;20198;-64
2023/03/06 03:57:19;;;;;;;34.07;17.60;;;5.20;99.90;;;;;;5035522;28;20608;-64
2023/03/06 03:59:44;;;;;;;34.40;16.20;;;5.30;99.90;;;;;;5057649;28;20213;-64
2023/03/06 04:02:10;;;;;;;29.83;16.03;;;5.40;99.90;;;;;;5044559;28;20191;-64
2023/03/06 04:04:36;;;;;;;33.03;16.43;;;5.30;99.90;;;;;;5043589;28;20190;-64
2023/03/06 04:07:03;;;;;;;32.33;16.87;;;5.40;99.90;;;;;;5053788;28;20190;-64
2023/03/06 04:09:29;;;;;;;39.00;17.57;;;5.50;99.90;;;;;;5046008;28;20182;-64
2023/03/06 04:11:54;;;;;;;33.47;17.80;;;5.40;99.90;;;;;;5051500;28;20320;-65
2023/03/06 04:14:20;;;;;;;38.50;19.33;;;5.30;99.90;;;;;;5059005;28;20702;-65
2023/03/06 04:16:46;;;;;;;39.40;17.97;;;5.30;99.90;;;;;;5038436;28;20186;-64
2023/03/06 04:19:12;;;;;;;36.97;18.70;;;5.30;99.90;;;;;;5052523;28;20340;-65
2023/03/06 04:21:37;;;;;;;34.63;16.60;;;5.50;99.90;;;;;;5041555;28;20193;-65
2023/03/06 04:24:03;;;;;;;35.57;17.37;;;5.40;99.90;;;;;;5034008;28;20212;-64
2023/03/06 04:26:29;;;;;;;36.13;17.60;;;5.30;99.90;;;;;;5044357;28;20600;-64
2023/03/06 04:28:55;;;;;;;37.03;16.60;;;5.30;99.90;;;;;;5037889;28;20231;-64
2023/03/06 04:31:21;;;;;;;34.57;18.10;;;5.30;99.90;;;;;;5059328;28;20280;-64
2023/03/06 04:33:46;;;;;;;30.90;16.67;;;5.20;99.90;;;;;;5051873;28;20217;-64
2023/03/06 04:36:30;;;;;;;34.90;17.87;;;5.20;99.90;;;;;;5046948;28;20182;-65
2023/03/06 04:38:56;;;;;;;31.60;16.47;;;5.10;99.90;;;;;;5063629;28;20703;-65
2023/03/06 04:41:22;;;;;;;39.47;17.10;;;5.20;99.90;;;;;;5047567;28;20217;-64
2023/03/06 04:43:48;;;;;;;35.73;16.63;;;5.20;99.90;;;;;;5044780;28;20197;-63
2023/03/06 04:46:14;;;;;;;30.50;17.13;;;5.20;99.90;;;;;;5067795;28;20220;-63
2023/03/06 04:48:39;;;;;;;42.97;18.70;;;5.20;99.90;;;;;;5062264;28;20268;-64
2023/03/06 04:51:05;;;;;;;31.40;17.27;;;5.30;99.90;;;;;;5046910;28;20205;-63
2023/03/06 04:53:31;;;;;;;37.53;19.50;;;5.40;99.90;;;;;;5045068;28;20175;-63
2023/03/06 04:55:58;;;;;;;32.67;17.50;;;5.30;99.90;;;;;;5034330;28;20197;-63
2023/03/06 04:58:24;;;;;;;29.77;16.23;;;5.40;99.90;;;;;;5044141;28;20218;-63
2023/03/06 05:00:51;;;;;;;40.57;18.13;;;5.20;99.90;;;;;;5045992;28;20660;-64
2023/03/06 05:03:16;;;;;;;38.73;16.73;;;5.20;99.90;;;;;;5055868;28;20189;-64
2023/03/06 05:05:42;;;;;;;42.60;17.33;;;5.10;99.90;;;;;;5038073;28;20183;-65
2023/03/06 05:08:14;;;;;;;34.70;17.87;;;5.20;99.90;;;;;;5034099;28;20190;-64
2023/03/06 05:10:40;;;;;;;29.37;15.20;;;5.20;99.90;;;;;;5034930;28;20205;-64
2023/03/06 05:13:06;;;;;;;34.40;17.10;;;5.30;99.90;;;;;;5051528;28;20185;-64
2023/03/06 05:15:31;;;;;;;40.73;17.60;;;5.30;99.90;;;;;;5053462;28;20590;-64
2023/03/06 05:17:57;;;;;;;27.70;14.97;;;5.20;99.90;;;;;;5062172;28;20225;-64
2023/03/06 05:20:23;;;;;;;38.83;18.67;;;5.10;99.90;;;;;;5036488;28;20190;-64
2023/03/06 05:22:49;;;;;;;37.53;16.77;;;5.20;99.90;;;;;;5052557;28;20276;-64
2023/03/06 05:25:15;;;;;;;37.10;17.07;;;5.10;99.90;;;;;;5043626;28;20194;-65
2023/03/06 05:27:41;;;;;;;41.03;17.03;;;5.00;99.90;;;;;;5036490;28;20179;-63
2023/03/06 05:30:09;;;;;;;35.73;16.27;;;5.10;99.90;;;;;;5041331;28;20187;-63
2023/03/06 05:32:34;;;;;;;37.83;16.27;;;4.90;99.90;;;;;;5043183;28;20206;-64
2023/03/06 05:35:00;;;;;;;31.40;15.60;;;5.00;99.90;;;;;;5087512;28;20631;-63
2023/03/06 05:37:26;;;;;;;37.57;17.10;;;5.00;99.90;;;;;;5033115;28;20308;-63
2023/03/06 05:39:51;;;;;;;36.27;16.47;;;5.10;99.90;;;;;;5033535;28;20222;-63
2023/03/06 05:42:17;;;;;;;32.70;16.90;;;5.10;99.90;;;;;;5033162;28;20182;-64
2023/03/06 05:44:43;;;;;;;34.67;17.47;;;5.20;99.90;;;;;;5043360;28;20614;-63
2023/03/06 05:47:10;;;;;;;33.87;15.90;;;5.10;99.90;;;;;;5043091;28;20290;-64
2023/03/06 05:49:36;;;;;;;36.73;16.93;;;5.10;99.90;;;;;;5051153;28;20189;-64
2023/03/06 05:52:04;;;;;;;40.63;17.60;;;5.10;99.90;;;;;;5052266;28;20186;-64
2023/03/06 05:54:30;;;;;;;35.37;17.60;;;5.20;99.90;;;;;;5050466;28;20190;-63
2023/03/06 05:56:56;;;;;;;41.40;17.53;;;5.20;99.90;;;;;;5047832;28;20257;-63
2023/03/06 05:59:26;;;;;;;41.67;18.13;;;5.20;99.90;;;;;;5064347;28;20233;-64
2023/03/06 06:01:56;;;;;;;39.73;17.80;;;5.20;99.90;;;;;;5056063;28;20179;-65
2023/03/06 06:04:23;;;;;;;34.03;16.47;;;5.30;99.90;;;;;;5046195;28;20183;-62
2023/03/06 06:06:57;;;;;;;33.90;14.63;;;5.20;99.90;;;;;;5040039;28;20190;-63
2023/03/06 06:09:24;;;;;;;36.97;16.00;;;5.20;99.90;;;;;;5044806;28;20240;-63
2023/03/06 06:11:54;;;;;;;41.90;16.33;;;5.10;99.90;;;;;;5045000;28;20551;-62
2023/03/06 06:14:20;;;;;;;37.10;16.30;;;5.10;99.90;;;;;;5042323;28;20538;-63
2023/03/06 06:16:46;;;;;;;35.37;16.03;;;5.00;99.90;;;;;;5046187;28;20186;-63
2023/03/06 06:19:17;;;;;;;37.17;17.97;;;5.00;99.90;;;;;;5038264;28;20214;-63
2023/03/06 06:21:45;;;;;;;36.13;16.87;;;5.10;99.90;;;;;;5059226;28;20189;-63
2023/03/06 06:24:11;;;;;;;43.70;17.63;;;5.00;99.90;;;;;;5045208;28;20563;-66
2023/03/06 06:26:38;;;;;;;37.37;15.60;;;4.90;99.90;;;;;;5043855;28;20184;-63
2023/03/06 06:29:04;;;;;;;40.57;17.50;;;4.90;99.90;;;;;;5039316;28;20185;-63
2023/03/06 06:31:29;;;;;;;35.83;16.53;;;4.90;99.90;;;;;;5080433;28;20235;-62
2023/03/06 06:33:55;;;;;;;41.70;17.23;;;4.90;99.90;;;;;;5056590;28;20269;-63
2023/03/06 06:36:21;;;;;;;35.27;16.70;;;4.90;99.90;;;;;;5048125;28;20174;-63
2023/03/06 06:38:47;;;;;;;32.27;16.77;;;4.90;99.90;;;;;;5039494;28;20213;-63
2023/03/06 06:41:13;;;;;;;39.43;17.40;;;4.90;99.90;;;;;;5054171;28;20706;-62
2023/03/06 06:43:39;;;;;;;34.73;16.23;;;4.90;99.90;;;;;;5040492;28;20317;-63
2023/03/06 06:46:04;;;;;;;36.37;16.43;;;4.90;99.90;;;;;;5045401;28;20208;-62
2023/03/06 06:48:30;;;;;;;42.17;16.50;;;4.90;99.90;;;;;;5036257;28;20186;-63
2023/03/06 06:50:57;;;;;;;43.03;19.20;;;4.90;99.90;;;;;;5013306;28;20187;-62
2023/03/06 06:53:23;;;;;;;46.63;17.50;;;4.90;99.90;;;;;;5046425;28;20184;-62
2023/03/06 06:55:48;;;;;;;37.90;17.07;;;4.80;99.90;;;;;;5045089;28;20186;-62
2023/03/06 06:58:14;;;;;;;37.17;17.30;;;4.70;99.90;;;;;;5043666;28;20265;-62
2023/03/06 07:00:40;;;;;;;36.17;17.33;;;4.60;99.90;;;;;;5040924;28;20189;-61
2023/03/06 07:03:07;;;;;;;33.70;16.30;;;4.60;99.90;;;;;;5049295;28;20186;-63
2023/03/06 07:05:33;;;;;;;40.80;17.77;;;4.70;99.90;;;;;;5076075;28;20198;-62
2023/03/06 07:07:59;;;;;;;45.30;18.97;;;4.80;99.90;;;;;;5034234;28;20214;-64
2023/03/06 07:10:24;;;;;;;35.23;17.40;;;4.90;99.90;;;;;;5054906;28;20193;-62
2023/03/06 07:12:50;;;;;;;32.33;16.60;;;5.00;99.90;;;;;;5050300;28;20179;-62
2023/03/06 07:15:16;;;;;;;34.77;17.10;;;5.10;99.90;;;;;;5040602;28;20212;-62
2023/03/06 07:17:42;;;;;;;35.70;18.33;;;5.10;99.90;;;;;;5042481;28;20188;-63
2023/03/06 07:20:09;;;;;;;44.37;19.27;;;5.00;99.90;;;;;;5042772;28;20190;-62
2023/03/06 07:22:35;;;;;;;40.30;18.70;;;5.10;99.90;;;;;;5038189;28;20241;-62
2023/03/06 07:25:02;;;;;;;37.77;18.67;;;5.20;99.90;;;;;;5030951;28;20457;-62
2023/03/06 07:27:27;;;;;;;42.40;16.47;;;5.50;99.90;;;;;;5039959;28;20272;-63
2023/03/06 07:29:53;;;;;;;41.33;18.87;;;6.20;99.90;;;;;;5056899;28;20283;-63
2023/03/06 07:32:19;;;;;;;40.53;19.17;;;7.00;99.90;;;;;;5064712;28;20189;-63
2023/03/06 07:34:45;;;;;;;41.73;19.67;;;7.90;99.90;;;;;;5045012;28;20705;-63
2023/03/06 07:37:11;;;;;;;43.87;18.63;;;8.60;99.90;;;;;;5051116;28;20223;-64
2023/03/06 07:39:37;;;;;;;43.40;19.97;;;9.00;99.90;;;;;;5045602;28;20303;-63
2023/03/06 07:42:03;;;;;;;38.90;19.63;;;9.50;99.90;;;;;;5035962;28;20194;-63
2023/03/06 07:44:29;;;;;;;41.43;19.20;;;10.10;99.90;;;;;;5036300;28;20348;-64
2023/03/06 07:46:54;;;;;;;37.80;18.60;;;10.80;99.90;;;;;;5053156;28;20687;-64
2023/03/06 07:49:20;;;;;;;49.03;19.87;;;11.20;99.90;;;;;;5038498;28;20189;-64
2023/03/06 07:51:46;;;;;;;33.42;17.95;;;11.50;99.90;;;;;;5039275;28;20181;-64
2023/03/06 07:54:11;;;;;;;40.35;18.45;;;11.50;99.90;;;;;;5037977;28;20194;-65
2023/03/06 07:56:37;;;;;;;33.53;17.83;;;11.90;99.90;;;;;;5045110;28;20219;-64
2023/03/06 07:59:03;;;;;;;38.50;17.58;;;12.10;99.90;;;;;;5062237;28;20727;-64
2023/03/06 08:01:29;;;;;;;36.92;18.98;;;12.20;99.90;;;;;;5049093;28;20652;-64
2023/03/06 08:03:55;;;;;;;34.53;17.75;;;12.50;99.90;;;;;;5051194;28;20262;-64
2023/03/06 08:06:23;;;;;;;39.88;17.60;;;12.60;99.90;;;;;;5039453;28;20637;-65
2023/03/06 08:08:50;;;;;;;38.92;17.67;;;12.50;99.90;;;;;;5049564;28;20209;-65
2023/03/06 08:11:18;;;;;;;35.75;18.50;;;12.20;99.90;;;;;;5039030;28;20186;-65
2023/03/06 08:13:45;;;;;;;34.30;17.15;;;12.10;99.90;;;;;;5039463;28;20233;-65
2023/03/06 08:16:11;;;;;;;40.78;18.50;;;12.50;99.90;;;;;;5033245;28;20207;-65
2023/03/06 08:18:38;;;;;;;32.55;16.95;;;12.90;99.90;;;;;;5033697;28;20230;-65
2023/03/06 08:21:08;;;;;;;34.55;17.08;;;12.90;99.90;;;;;;5032477;28;20320;-65
2023/03/06 08:23:34;;;;;;;35.97;19.20;;;12.60;99.90;;;;;;5040182;28;20186;-65
2023/03/06 08:26:04;;;;;;;33.42;16.15;;;12.50;99.90;;;;;;5088826;28;20182;-65
2023/03/06 08:28:29;;;;;;;34.05;18.23;;;12.90;99.90;;;;;;5066437;28;20253;-64
2023/03/06 08:30:56;;;;;;;36.45;17.98;;;13.20;99.90;;;;;;5049764;28;20645;-64
2023/03/06 08:33:22;;;;;;;39.65;18.45;;;13.00;99.90;;;;;;5040590;28;20189;-66
2023/03/06 08:35:48;;;;;;;34.25;17.15;;;12.40;99.90;;;;;;5045127;28;20182;-66
2023/03/06 08:38:14;;;;;;;33.63;18.15;;;11.70;99.90;;;;;;5046221;28;20206;-65
2023/03/06 08:40:39;;;;;;;34.63;17.80;;;11.50;99.90;;;;;;5061697;28;20187;-64
2023/03/06 08:43:09;;;;;;;34.08;17.95;;;11.50;99.90;;;;;;5074984;28;20177;-65
2023/03/06 08:45:35;;;;;;;35.85;18.60;;;11.50;99.90;;;;;;5062096;28;20188;-66
2023/03/06 08:48:00;;;;;;;40.25;19.88;;;11.40;99.90;;;;;;5059410;28;20562;-65
2023/03/06 08:50:26;;;;;;;31.42;17.70;;;10.90;99.90;;;;;;5062626;28;20315;-66
2023/03/06 08:52:52;;;;;;;39.08;19.65;;;10.60;99.90;;;;;;5052431;28;20235;-66
2023/03/06 08:55:17;;;;;;;38.28;18.73;;;10.50;99.90;;;;;;5053871;28;20194;-66
2023/03/06 08:57:43;;;;;;;44.60;19.88;;;10.30;99.90;;;;;;5049822;28;20220;-64
2023/03/06 09:00:11;;;;;;;35.53;18.60;;;10.30;99.90;;;;;;5047061;28;20270;-68
2023/03/06 09:02:37;;;;;;;39.60;18.20;;;10.30;99.90;;;;;;5058048;28;20186;-63
2023/03/06 09:05:07;;;;;;;35.80;17.92;;;10.00;99.90;;;;;;5038431;28;20191;-63
2023/03/06 09:07:34;;;;;;;30.95;16.02;;;9.70;99.90;;;;;;5062488;28;20673;-64
2023/03/06 09:10:00;;;;;;;36.10;16.90;;;9.80;99.90;;;;;;5064189;28;20189;-67
2023/03/06 09:12:26;;;;;;;32.25;17.55;;;9.50;99.90;;;;;;5048788;28;20193;-63
2023/03/06 09:14:52;;;;;;;35.27;16.60;;;9.60;99.90;;;;;;5040100;28;20187;-63
2023/03/06 09:17:18;;;;;;;31.87;15.07;;;9.70;99.90;;;;;;5034484;28;20245;-64
2023/03/06 09:19:43;;;;;;;42.03;18.57;;;9.50;99.90;;;;;;5039752;28;20565;-63
2023/03/06 09:22:09;;;;;;;37.43;16.57;;;9.50;99.90;;;;;;5066370;28;20240;-63
2023/03/06 09:24:35;;;;;;;34.07;16.47;;;9.50;99.90;;;;;;5035196;28;20603;-63
2023/03/06 09:27:01;;;;;;;33.03;16.37;;;9.30;99.90;;;;;;5037862;28;20206;-63
2023/03/06 09:29:27;;;;;;;34.67;18.03;;;9.20;99.90;;;;;;5052197;28;20197;-63
2023/03/06 09:31:53;;;;;;;35.87;16.60;;;9.20;99.90;;;;;;5046409;28;20186;-65
2023/03/06 09:34:19;;;;;;;38.87;16.57;;;9.10;99.90;;;;;;5037206;28;20197;-64
2023/03/06 09:36:44;;;;;;;29.77;13.97;;;8.80;99.90;;;;;;5051533;28;20216;-63
2023/03/06 09:39:10;;;;;;;35.23;17.13;;;8.80;99.90;;;;;;5039632;28;20275;-64
2023/03/06 09:41:40;;;;;;;29.47;15.70;;;8.90;99.90;;;;;;5050562;28;20292;-63
2023/03/06 09:44:21;;;;;;;29.63;14.77;;;8.90;99.90;;;;;;5040999;28;20175;-64
2023/03/06 09:46:50;;;;;;;33.60;16.37;;;8.90;99.90;;;;;;5037035;28;20178;-65
2023/03/06 09:49:36;;;;;;;32.03;14.87;;;8.80;99.90;;;;;;5036853;28;20187;-64
2023/03/06 09:52:32;;;;;;;31.10;15.77;;;8.60;99.90;;;;;;5035638;28;20671;-64
2023/03/06 09:55:07;;;;;;;34.07;15.33;;;8.40;99.90;;;;;;5034893;28;20222;-65
2023/03/06 09:58:03;;;;;;;32.40;15.53;;;8.60;99.90;;;;;;5046880;28;20224;-68
2023/03/06 10:01:05;;;;;;;33.97;15.80;;;8.70;99.90;;;;;;5058239;28;20692;-63
2023/03/06 10:03:53;;;;;;;32.60;17.30;;;8.70;99.90;;;;;;5075101;28;20197;-63
2023/03/06 10:06:47;;;;;;;41.53;17.00;;;8.80;99.90;;;;;;5037187;28;20178;-65
2023/03/06 10:09:38;;;;;;;37.70;18.13;;;8.80;99.90;;;;;;5033110;28;20186;-64
2023/03/06 10:12:16;;;;;;;41.73;17.37;;;8.80;99.90;;;;;;5032089;28;20645;-64
2023/03/06 10:14:45;;;;;;;36.17;17.10;;;8.90;99.90;;;;;;5032985;28;20171;-65
2023/03/06 10:17:17;;;;;;;33.90;16.50;;;8.90;99.90;;;;;;5032781;28;20605;-66
2023/03/06 10:19:43;;;;;;;39.30;17.40;;;9.00;99.90;;;;;;5033134;28;20649;-64
2023/03/06 10:22:27;;;;;;;28.33;15.20;;;9.20;99.90;;;;;;5033656;28;20278;-65
2023/03/06 10:24:58;;;;;;;38.17;18.33;;;9.50;99.90;;;;;;5032906;28;20178;-64
2023/03/06 10:27:24;;;;;;;34.93;16.00;;;9.60;99.90;;;;;;5065058;28;20177;-66
2023/03/06 10:30:12;;;;;;;35.15;16.58;;;9.70;99.90;;;;;;5056616;28;20213;-65
2023/03/06 10:33:16;;;;;;;28.63;14.43;;;9.80;99.90;;;;;;5032495;28;20613;-62
2023/03/06 10:35:52;;;;;;;32.58;15.93;;;9.70;99.90;;;;;;5032770;28;20546;-64
2023/03/06 10:38:22;;;;;;;31.95;15.43;;;10.00;99.90;;;;;;5039035;28;20217;-64
2023/03/06 10:41:00;;;;;;;40.50;18.03;;;10.10;99.90;;;;;;5047564;28;20740;-63
2023/03/06 10:43:26;;;;;;;33.75;16.13;;;10.30;99.90;;;;;;5058721;28;20178;-62
2023/03/06 10:45:53;;;;;;;32.10;16.93;;;10.40;99.90;;;;;;5046617;28;20214;-64
2023/03/06 10:48:22;;;;;;;34.28;16.13;;;10.20;99.90;;;;;;5039733;28;20548;-65
2023/03/06 10:50:48;;;;;;;30.80;15.25;;;10.10;99.90;;;;;;5046918;28;20182;-64
2023/03/06 10:53:23;;;;;;;33.10;15.50;;;10.20;99.90;;;;;;5041064;28;20187;-63
2023/03/06 10:55:55;;;;;;;32.83;16.77;;;10.10;99.90;;;;;;5037431;28;20209;-64
2023/03/06 10:58:29;;;;;;;33.92;15.88;;;9.90;99.90;;;;;;5046320;28;20310;-64
2023/03/06 11:01:19;;;;;;;29.67;14.77;;;10.00;99.90;;;;;;5058883;28;20185;-64
2023/03/06 11:03:45;;;;;;;26.58;14.45;;;10.10;99.90;;;;;;5041818;28;20272;-65
2023/03/06 11:06:39;;;;;;;29.63;13.60;;;10.10;99.90;;;;;;5049861;28;20592;-65
2023/03/06 11:09:21;;;;;;;23.45;12.98;;;10.30;99.90;;;;;;5039858;28;20216;-65
2023/03/06 11:11:48;;;;;;;25.45;13.30;;;10.20;99.90;;;;;;5048158;28;20195;-65
2023/03/06 11:14:16;;;;;;;24.55;13.10;;;10.40;99.90;;;;;;5048729;28;20663;-65
2023/03/06 11:16:52;;;;;;;31.48;14.30;;;10.40;99.90;;;;;;5048863;28;20181;-65
2023/03/06 11:19:25;;;;;;;24.95;12.40;;;10.40;99.90;;;;;;5043361;28;20210;-66
2023/03/06 11:22:03;;;;;;;20.50;12.65;;;10.50;99.90;;;;;;5046160;28;20189;-65
2023/03/06 11:24:39;;;;;;;25.80;13.50;;;10.40;99.90;;;;;;5032123;28;20182;-65
2023/03/06 11:27:24;;;;;;;25.20;12.48;;;10.20;99.90;;;;;;5058456;28;20177;-65
2023/03/06 11:29:53;;;;;;;25.83;12.45;;;10.00;99.90;;;;;;5055123;28;20264;-67
2023/03/06 11:32:40;;;;;;;26.52;13.35;;;10.10;99.90;;;;;;5040044;28;20547;-63
2023/03/06 11:35:11;;;;;;;18.95;10.70;;;10.20;99.90;;;;;;5031052;28;20529;-65
2023/03/06 11:38:03;;;;;;;22.90;12.40;;;10.10;99.90;;;;;;5047994;28;20255;-63
2023/03/06 11:40:52;;;;;;;23.27;11.98;;;9.80;99.90;;;;;;5042074;28;20618;-63
2023/03/06 11:43:44;;;;;;;25.00;11.87;;;9.70;99.90;;;;;;5038553;28;20633;-64
2023/03/06 11:46:21;;;;;;;22.08;12.65;;;9.70;99.90;;;;;;5047292;28;20220;-64
2023/03/06 11:48:55;;;;;;;26.50;12.83;;;9.50;99.90;;;;;;5040003;28;20217;-64
2023/03/06 11:51:28;;;;;;;22.70;12.37;;;9.60;99.90;;;;;;5032050;28;20245;-64
2023/03/06 11:53:54;;;;;;;24.40;12.27;;;9.60;99.90;;;;;;5042485;28;20181;-64
2023/03/06 11:56:26;;;;;;;26.03;13.40;;;9.70;99.90;;;;;;5044584;28;20224;-64
2023/03/06 11:59:02;;;;;;;25.80;14.07;;;9.60;99.90;;;;;;5051113;28;20533;-64
2023/03/06 12:02:07;;;;;;;24.93;13.10;;;9.80;99.90;;;;;;5052173;28;20178;-64
2023/03/06 12:04:45;;;;;;;25.83;13.35;;;9.70;99.90;;;;;;5004113;28;20305;-64
2023/03/06 12:07:19;;;;;;;22.93;12.07;;;10.00;99.90;;;;;;5045600;28;20216;-64
2023/03/06 12:10:03;;;;;;;22.97;13.27;;;9.80;99.90;;;;;;5045790;28;20229;-66
2023/03/06 12:12:59;;;;;;;26.93;12.33;;;9.90;99.90;;;;;;5044809;28;20217;-64
2023/03/06 12:15:47;;;;;;;20.37;11.63;;;9.90;99.90;;;;;;5035270;28;20193;-63
2023/03/06 12:18:34;;;;;;;25.13;11.70;;;10.00;99.90;;;;;;5064685;28;20209;-64
2023/03/06 12:21:32;;;;;;;25.55;13.48;;;10.30;99.90;;;;;;5056146;28;20539;-63
2023/03/06 12:24:25;;;;;;;22.05;11.95;;;10.30;99.90;;;;;;5042991;28;20181;-64
2023/03/06 12:26:57;;;;;;;22.63;12.35;;;10.50;99.90;;;;;;5040142;28;20182;-65
2023/03/06 12:29:49;;;;;;;28.60;10.05;;;10.60;99.90;;;;;;5038780;28;20206;-65
2023/03/06 12:32:25;;;;;;;18.30;10.52;;;10.70;99.90;;;;;;5039766;28;20197;-65
2023/03/06 12:35:15;;;;;;;18.40;10.27;;;10.60;99.90;;;;;;5036674;28;20182;-64
2023/03/06 12:37:55;;;;;;;18.27;10.27;;;10.60;99.90;;;;;;5035748;28;20266;-64
2023/03/06 12:40:49;;;;;;;20.23;10.85;;;10.40;99.90;;;;;;5043740;28;20187;-65
2023/03/06 12:43:53;;;;;;;21.17;12.73;;;10.30;99.90;;;;;;5036701;28;20261;-64
2023/03/06 12:46:24;;;;;;;21.70;11.13;;;10.40;99.90;;;;;;5035443;28;20179;-65
2023/03/06 12:49:08;;;;;;;23.00;11.30;;;10.60;99.90;;;;;;5036084;28;20684;-65